Time;durP1;ratioP1;P1;durP2;ratioP2;P2;SDS_P1;SDS_P2;PMS_P1;PMS_P2;Temp;Humidity;BMP_temperature;BMP_pressure;BME280_temperature;BME280_humidity;BME280_pressure;Samples;Min_cycle;Max_cycle;Signal;HPM_P1;HPM_P2
2022/11/17 00:02:05;;;;;;;1999.90;999.90;;;;;;;9.57;100.00;96627.47;5105882;28;20038;-75
2022/11/17 00:04:30;;;;;;;1999.90;999.90;;;;;;;9.54;100.00;96630.03;5108735;28;20062;-74
2022/11/17 00:06:57;;;;;;;1999.90;999.90;;;;;;;9.55;100.00;96626.97;5104452;28;20075;-75
2022/11/17 00:09:22;;;;;;;1999.90;999.90;;;;;;;9.54;100.00;96619.13;5102720;28;20157;-75
2022/11/17 00:14:40;;;;;;;1999.90;999.90;;;;;;;9.61;100.00;96617.53;5090551;28;20032;-74
2022/11/17 00:17:08;;;;;;;1999.90;999.90;;;;;;;9.64;100.00;96629.72;5102947;28;20032;-74
2022/11/17 00:22:18;;;;;;;1999.90;999.90;;;;;;;9.66;100.00;96620.06;5090705;28;20423;-74
2022/11/17 00:24:43;;;;;;;1999.90;999.90;;;;;;;9.56;100.00;96617.66;5087032;28;20024;-75
2022/11/17 00:27:09;;;;;;;1999.90;999.90;;;;;;;9.55;100.00;96610.59;5111072;28;20046;-74
2022/11/17 00:29:34;;;;;;;1999.90;999.90;;;;;;;9.57;100.00;96613.81;5110802;28;20072;-74
2022/11/17 00:34:43;;;;;;;1999.90;999.90;;;;;;;9.62;100.00;96608.19;5111826;28;20035;-76
2022/11/17 00:37:12;;;;;;;1999.90;999.90;;;;;;;9.58;100.00;96599.06;5113053;28;20032;-74
2022/11/17 00:39:37;;;;;;;1999.90;999.90;;;;;;;9.60;100.00;96604.97;5102959;28;20028;-74
2022/11/17 00:42:05;;;;;;;1999.90;999.90;;;;;;;9.65;100.00;96604.81;5105118;28;20028;-75
2022/11/17 00:44:31;;;;;;;1999.90;999.90;;;;;;;9.67;100.00;96610.78;5081258;28;20028;-75
2022/11/17 00:46:56;;;;;;;1999.90;999.90;;;;;;;9.62;100.00;96608.19;5101242;28;20378;-75
2022/11/17 00:49:25;;;;;;;1999.90;999.90;;;;;;;9.72;100.00;96609.78;5099446;28;20027;-74
2022/11/17 00:51:52;;;;;;;1999.90;999.90;;;;;;;9.72;100.00;96604.31;5096650;28;20107;-75
2022/11/17 00:54:17;;;;;;;1999.90;999.90;;;;;;;9.73;100.00;96594.22;5099932;28;20044;-74
2022/11/17 00:56:42;;;;;;;1999.90;999.90;;;;;;;9.74;100.00;96596.63;5095205;28;20073;-75
2022/11/17 00:59:08;;;;;;;1999.90;999.90;;;;;;;9.69;100.00;96592.13;5090333;28;20420;-74
2022/11/17 01:01:33;;;;;;;1999.90;999.90;;;;;;;9.51;100.00;96581.53;5090328;28;20530;-76
2022/11/17 01:04:02;;;;;;;1999.90;999.90;;;;;;;9.57;100.00;96574.78;5090558;28;20544;-75
2022/11/17 01:06:31;;;;;;;1999.90;999.90;;;;;;;9.48;100.00;96574.81;5094238;28;20020;-74
2022/11/17 01:09:01;;;;;;;1999.90;999.90;;;;;;;9.55;100.00;96566.91;5094867;28;20024;-75
2022/11/17 01:11:27;;;;;;;1999.90;999.90;;;;;;;9.51;100.00;96565.97;5096190;28;20058;-75
2022/11/17 01:13:55;;;;;;;1999.90;999.90;;;;;;;9.37;100.00;96569.97;5095449;28;20524;-74
2022/11/17 01:16:21;;;;;;;1999.90;999.90;;;;;;;9.41;100.00;96576.41;5094173;28;20498;-74
2022/11/17 01:18:48;;;;;;;1999.90;999.90;;;;;;;9.33;100.00;96569.84;5094564;28;20121;-74
2022/11/17 01:21:22;;;;;;;1999.90;999.90;;;;;;;9.19;100.00;96568.38;5094047;28;20480;-74
2022/11/17 01:23:50;;;;;;;1999.90;999.90;;;;;;;9.13;100.00;96565.00;5093848;28;20392;-75
2022/11/17 01:26:18;;;;;;;1999.90;999.90;;;;;;;9.28;100.00;96567.25;5094001;28;20044;-76
2022/11/17 01:28:44;;;;;;;1999.90;999.90;;;;;;;9.32;100.00;96567.41;5093888;28;20031;-75
2022/11/17 01:31:18;;;;;;;1999.90;999.90;;;;;;;9.32;100.00;96564.69;5094025;28;20048;-74
2022/11/17 01:33:44;;;;;;;1999.90;999.90;;;;;;;9.34;100.00;96562.44;5094075;28;20060;-74
2022/11/17 01:36:16;;;;;;;1999.90;999.90;;;;;;;9.27;100.00;96560.19;5093831;28;20063;-73
2022/11/17 01:38:44;;;;;;;1999.90;999.90;;;;;;;9.25;100.00;96554.25;5093842;28;20032;-74
2022/11/17 01:41:16;;;;;;;1999.90;999.90;;;;;;;9.35;100.00;96561.31;5093495;28;20046;-74
2022/11/17 01:43:47;;;;;;;1999.90;999.90;;;;;;;9.34;100.00;96562.44;5093655;28;20027;-74
2022/11/17 01:46:23;;;;;;;1999.90;999.90;;;;;;;9.29;100.00;96557.97;5094823;28;20096;-74
2022/11/17 01:48:51;;;;;;;1999.90;999.90;;;;;;;9.20;100.00;96562.63;5094110;28;20031;-75
2022/11/17 01:51:22;;;;;;;1999.90;999.90;;;;;;;9.08;100.00;96549.59;5093235;28;20487;-73
2022/11/17 01:53:51;;;;;;;1999.90;999.90;;;;;;;9.14;100.00;96555.72;5093503;28;20024;-75
2022/11/17 01:56:23;;;;;;;1999.90;999.90;;;;;;;9.20;100.00;96557.16;5093380;28;20024;-75
2022/11/17 01:58:55;;;;;;;1999.90;999.90;;;;;;;9.21;100.00;96558.75;5074006;28;20058;-75
2022/11/17 02:01:20;;;;;;;1999.90;999.90;;;;;;;9.26;100.00;96550.41;5092835;28;20038;-75
2022/11/17 02:03:50;;;;;;;1999.90;999.90;;;;;;;9.20;100.00;96550.91;5093250;28;20024;-74
2022/11/17 02:06:23;;;;;;;1999.90;999.90;;;;;;;9.15;100.00;96551.84;5093073;28;20081;-75
2022/11/17 02:08:51;;;;;;;1999.90;999.90;;;;;;;9.15;100.00;96557.31;5093069;28;20072;-76
2022/11/17 02:11:19;;;;;;;1999.90;999.90;;;;;;;9.15;100.00;96554.56;5093198;28;20024;-75
2022/11/17 02:13:44;;;;;;;1999.90;999.90;;;;;;;9.20;100.00;96546.25;5093010;28;20024;-75
2022/11/17 02:16:15;;;;;;;1999.90;999.90;;;;;;;9.29;100.00;96546.25;5091784;28;20038;-75
2022/11/17 02:18:42;;;;;;;1999.90;999.90;;;;;;;9.27;100.00;96538.34;5093250;28;20028;-75
2022/11/17 02:21:13;;;;;;;1999.90;999.90;;;;;;;9.24;100.00;96543.69;5093015;28;20028;-75
2022/11/17 02:23:57;;;;;;;1999.90;999.90;;;;;;;9.15;100.00;96533.56;5093046;28;20031;-75
2022/11/17 02:26:39;;;;;;;1999.90;999.90;;;;;;;9.19;100.00;96533.72;5092500;28;20035;-74
2022/11/17 02:29:29;;;;;;;1999.90;999.90;;;;;;;9.22;100.00;96532.28;5092793;28;20125;-74
2022/11/17 02:32:04;;;;;;;1999.90;999.90;;;;;;;9.22;100.00;96527.63;5092779;28;20039;-75
2022/11/17 02:34:42;;;;;;;1999.90;999.90;;;;;;;9.10;100.00;96541.91;5092873;28;20574;-75
2022/11/17 02:37:25;;;;;;;1999.90;999.90;;;;;;;9.11;100.00;96540.00;5092539;28;20114;-74
2022/11/17 02:40:03;;;;;;;1999.90;999.90;;;;;;;8.99;100.00;96543.34;5092727;28;20054;-75
2022/11/17 02:45:44;;;;;;;1999.90;999.90;;;;;;;9.07;100.00;96539.03;5099816;28;20110;-84
2022/11/17 02:48:15;;;;;;;1999.90;999.90;;;;;;;9.04;100.00;96529.56;5111063;28;20085;-76
2022/11/17 02:50:45;;;;;;;1999.90;999.90;;;;;;;9.02;100.00;96528.28;5111958;28;20020;-75
2022/11/17 02:53:12;;;;;;;1999.90;999.90;;;;;;;9.02;100.00;96534.50;5094235;28;20499;-75
2022/11/17 02:55:37;;;;;;;1999.90;999.90;;;;;;;9.08;100.00;96540.63;5092113;28;20036;-75
2022/11/17 02:58:08;;;;;;;1999.90;999.90;;;;;;;9.09;100.00;96540.28;5092245;28;20136;-75
2022/11/17 03:00:41;;;;;;;1999.90;999.90;;;;;;;9.07;100.00;96539.03;5092103;28;20016;-75
2022/11/17 03:03:25;;;;;;;1999.90;999.90;;;;;;;9.14;100.00;96539.34;5095363;28;20665;-75
2022/11/17 03:06:07;;;;;;;1999.90;999.90;;;;;;;9.13;100.00;96537.72;5112125;28;20028;-76
2022/11/17 03:08:45;;;;;;;1999.90;999.90;;;;;;;9.15;100.00;96530.03;5112078;28;20048;-75
2022/11/17 03:11:12;;;;;;;1999.90;999.90;;;;;;;9.05;100.00;96530.38;5112571;28;20046;-75
2022/11/17 03:14:01;;;;;;;1999.90;999.90;;;;;;;9.06;100.00;96526.50;5112082;28;20032;-75
2022/11/17 03:16:36;;;;;;;1999.90;999.90;;;;;;;9.03;100.00;96527.13;5111825;28;20074;-75
2022/11/17 03:19:13;;;;;;;1999.90;999.90;;;;;;;8.96;100.00;96530.34;5112093;28;20027;-76
2022/11/17 03:22:04;;;;;;;1999.90;999.90;;;;;;;8.98;100.00;96521.84;5112005;28;20032;-77
2022/11/17 03:24:32;;;;;;;1999.90;999.90;;;;;;;9.01;100.00;96532.13;5111924;28;20472;-75
2022/11/17 03:27:15;;;;;;;1999.90;999.90;;;;;;;9.11;100.00;96540.00;5111470;28;20028;-76
2022/11/17 03:29:45;;;;;;;1999.90;999.90;;;;;;;9.11;100.00;96556.34;5102883;28;20028;-76
2022/11/17 03:32:13;;;;;;;1999.90;999.90;;;;;;;9.16;100.00;96553.47;5095271;28;20110;-75
2022/11/17 03:34:48;;;;;;;1999.90;999.90;;;;;;;9.15;100.00;96562.75;5091636;28;20036;-76
2022/11/17 03:37:17;;;;;;;1999.90;999.90;;;;;;;9.23;100.00;96561.16;5112634;28;20369;-76
2022/11/17 03:39:52;;;;;;;1999.90;999.90;;;;;;;9.24;100.00;96557.31;5111555;28;20027;-75
2022/11/17 03:42:22;;;;;;;1999.90;999.90;;;;;;;9.24;100.00;96555.38;5111803;28;20038;-76
2022/11/17 03:45:00;;;;;;;1999.90;999.90;;;;;;;9.13;100.00;96549.44;5111527;28;20027;-76
2022/11/17 03:47:28;;;;;;;1999.90;999.90;;;;;;;9.20;100.00;96559.06;5110546;28;20520;-74
2022/11/17 03:50:00;;;;;;;1999.90;999.90;;;;;;;9.24;100.00;96560.81;5110876;28;20395;-75
2022/11/17 03:52:28;;;;;;;1999.90;999.90;;;;;;;9.23;100.00;96553.78;5111015;28;20115;-76
2022/11/17 03:54:54;;;;;;;1999.90;999.90;;;;;;;9.24;100.00;96563.56;5110396;28;20484;-76
2022/11/17 03:57:33;;;;;;;1999.90;999.90;;;;;;;9.21;100.00;96574.34;5110716;28;20032;-76
2022/11/17 04:00:10;;;;;;;1999.90;999.90;;;;;;;9.31;100.00;96585.72;5111262;28;20396;-75
2022/11/17 04:02:39;;;;;;;1999.90;999.90;;;;;;;9.28;100.00;96583.63;5111103;28;20838;-76
2022/11/17 04:05:04;;;;;;;1999.90;999.90;;;;;;;9.32;100.00;96581.88;5111430;28;20031;-76
2022/11/17 04:07:35;;;;;;;1999.90;999.90;;;;;;;9.19;100.00;96577.38;5110966;28;20066;-76
2022/11/17 04:10:01;;;;;;;1999.90;999.90;;;;;;;8.97;100.00;96580.22;5111400;28;20046;-75
2022/11/17 04:17:55;;;;;;;1999.90;999.90;;;;;;;8.91;100.00;96573.31;5111218;28;20035;-76
2022/11/17 04:20:21;;;;;;;1999.90;999.90;;;;;;;8.87;100.00;96569.63;5111045;28;20032;-75
2022/11/17 04:23:05;;;;;;;1999.90;999.90;;;;;;;8.79;100.00;96564.97;5111030;28;20517;-75
2022/11/17 04:28:38;;;;;;;1999.90;999.90;;;;;;;8.72;100.00;96570.06;5111307;28;20065;-75
2022/11/17 04:31:04;;;;;;;1999.90;999.90;;;;;;;8.83;100.00;96577.66;5111982;28;20536;-75
2022/11/17 04:33:30;;;;;;;1999.90;999.90;;;;;;;8.96;100.00;96581.34;5113659;28;20899;-76
2022/11/17 04:35:56;;;;;;;1999.90;999.90;;;;;;;8.99;100.00;96567.88;5111242;28;20034;-76
2022/11/17 04:38:22;;;;;;;1999.90;999.90;;;;;;;9.05;100.00;96558.41;5110821;28;20111;-76
2022/11/17 04:43:31;;;;;;;1999.90;999.90;;;;;;;9.05;100.00;96569.31;5111229;28;20463;-75
2022/11/17 04:45:58;;;;;;;1999.90;999.90;;;;;;;8.98;100.00;96566.28;5110855;28;20054;-75
2022/11/17 04:48:24;;;;;;;1999.90;999.90;;;;;;;8.80;100.00;96567.38;5111125;28;20031;-75
2022/11/17 04:50:54;;;;;;;1999.90;999.90;;;;;;;8.83;100.00;96565.94;5110926;28;20123;-75
2022/11/17 04:53:21;;;;;;;1999.90;999.90;;;;;;;8.75;100.00;96559.34;5111158;28;20559;-76
2022/11/17 04:55:46;;;;;;;1999.90;999.90;;;;;;;8.79;100.00;96559.53;5096311;28;20434;-82
2022/11/17 04:58:12;;;;;;;1999.90;999.90;;;;;;;8.79;100.00;96556.78;5116768;28;20027;-75
2022/11/17 05:00:37;;;;;;;1999.90;999.90;;;;;;;8.77;100.00;96561.78;5110998;28;20062;-76
2022/11/17 05:03:02;;;;;;;1999.90;999.90;;;;;;;8.76;100.00;96554.69;5098032;28;20024;-75
2022/11/17 05:05:28;;;;;;;1999.90;999.90;;;;;;;8.90;100.00;96556.16;5090319;28;20031;-76
2022/11/17 05:07:53;;;;;;;1999.90;999.90;;;;;;;8.91;100.00;96556.97;5090176;28;20044;-75
2022/11/17 05:13:20;;;;;;;1999.90;999.90;;;;;;;9.06;100.00;96553.78;5090514;28;20032;-76
2022/11/17 05:13:24;;;;;;;1999.90;999.90;;;;;;;9.10;100.00;96552.00;5090186;28;20538;-75
2022/11/17 05:18:38;;;;;;;1999.90;999.90;;;;;;;9.11;100.00;96553.63;5090502;28;20388;-75
2022/11/17 05:21:05;;;;;;;1999.90;999.90;;;;;;;9.08;100.00;96554.28;5090385;28;20108;-75
2022/11/17 05:26:15;;;;;;;1999.90;999.90;;;;;;;9.08;100.00;96552.31;5091368;28;20101;-75
2022/11/17 05:28:41;;;;;;;1999.90;999.90;;;;;;;9.06;100.00;96553.78;5090668;28;20512;-76
2022/11/17 05:31:07;;;;;;;1999.90;999.90;;;;;;;9.05;100.00;96547.50;5090351;28;20085;-76
2022/11/17 05:33:32;;;;;;;1999.90;999.90;;;;;;;9.05;100.00;96547.50;5089970;28;20601;-75
2022/11/17 05:35:58;;;;;;;1999.90;999.90;;;;;;;9.06;100.00;96542.84;5089994;28;20385;-75
2022/11/17 05:38:23;;;;;;;1999.90;999.90;;;;;;;9.02;100.00;96545.41;5089992;28;20028;-75
2022/11/17 05:40:49;;;;;;;1999.90;999.90;;;;;;;9.04;100.00;96547.84;5090525;28;20020;-75
2022/11/17 05:43:14;;;;;;;1999.90;999.90;;;;;;;9.00;100.00;96550.41;5090222;28;20106;-75
2022/11/17 05:45:40;;;;;;;1999.90;999.90;;;;;;;9.04;100.00;96548.66;5090201;28;20030;-75
2022/11/17 05:48:05;;;;;;;1999.90;999.90;;;;;;;8.99;100.00;96543.34;5090150;28;20024;-76
2022/11/17 05:50:31;;;;;;;1999.90;999.90;;;;;;;8.91;100.00;96543.34;5090948;28;20035;-75
2022/11/17 05:52:56;;;;;;;1999.90;999.90;;;;;;;8.78;100.00;96541.53;5111706;28;20118;-74
2022/11/17 05:55:21;;;;;;;1999.90;999.90;;;;;;;8.71;100.00;96533.84;5113783;28;20387;-75
2022/11/17 05:57:49;;;;;;;1999.90;999.90;;;;;;;8.56;100.00;96529.66;5113838;28;20042;-76
2022/11/17 06:00:14;;;;;;;1999.90;999.90;;;;;;;8.35;100.00;96516.94;5114083;28;20035;-74
2022/11/17 06:02:45;;;;;;;1999.90;999.90;;;;;;;8.40;100.00;96520.31;5103509;28;20035;-76
2022/11/17 06:05:11;;;;;;;1999.90;999.90;;;;;;;8.35;100.00;96522.38;5093277;28;20114;-75
2022/11/17 06:07:37;;;;;;;1999.90;999.90;;;;;;;8.18;100.00;96522.28;5092999;28;20128;-75
2022/11/17 06:10:03;;;;;;;1999.90;999.90;;;;;;;8.17;100.00;96529.69;5093444;28;20020;-75
2022/11/17 06:12:28;;;;;;;1999.90;999.90;;;;;;;8.15;100.00;96556.41;5101127;28;20020;-77
2022/11/17 06:14:53;;;;;;;1999.90;999.90;;;;;;;8.26;100.00;96563.19;5116112;28;20028;-73
2022/11/17 06:17:19;;;;;;;1999.90;999.90;;;;;;;8.51;100.00;96564.44;5104427;28;20028;-75
2022/11/17 06:19:52;;;;;;;1999.90;999.90;;;;;;;8.57;100.00;96558.50;5102090;28;20059;-75
2022/11/17 06:22:17;;;;;;;1999.90;999.90;;;;;;;8.68;100.00;96558.22;5103333;28;20020;-76
2022/11/17 06:24:44;;;;;;;1999.90;999.90;;;;;;;8.79;100.00;96570.41;5101603;28;20533;-76
2022/11/17 06:27:15;;;;;;;1999.90;999.90;;;;;;;8.88;100.00;96569.31;5101319;28;20036;-74
2022/11/17 06:29:41;;;;;;;1999.90;999.90;;;;;;;8.98;100.00;96579.13;5099930;28;20393;-75
2022/11/17 06:32:07;;;;;;;1999.90;999.90;;;;;;;8.99;100.00;96580.75;5093162;28;20492;-72
2022/11/17 06:34:33;;;;;;;1999.90;999.90;;;;;;;9.03;100.00;96584.41;5095170;28;20031;-74
2022/11/17 06:36:59;;;;;;;1999.90;999.90;;;;;;;9.11;100.00;96583.63;5112919;28;20027;-74
2022/11/17 06:39:24;;;;;;;1999.90;999.90;;;;;;;9.20;100.00;96584.44;5103959;28;20026;-75
2022/11/17 06:41:50;;;;;;;1999.90;999.90;;;;;;;9.20;100.00;96564.53;5100377;28;20035;-77
2022/11/17 06:44:15;;;;;;;1999.90;999.90;;;;;;;9.14;100.00;96572.09;5103226;28;20070;-78
2022/11/17 06:46:43;;;;;;;1999.90;999.90;;;;;;;9.17;100.00;96590.53;5115484;28;20051;-74
2022/11/17 06:49:08;;;;;;;1999.90;999.90;;;;;;;9.14;100.00;96588.44;5099808;28;20451;-75
2022/11/17 06:51:34;;;;;;;1999.90;999.90;;;;;;;9.18;100.00;96604.97;5103977;28;20115;-75
2022/11/17 06:54:00;;;;;;;1999.90;999.90;;;;;;;9.24;100.00;96599.03;5109104;28;20051;-73
2022/11/17 06:56:26;;;;;;;1999.90;999.90;;;;;;;9.31;100.00;96599.34;5099894;28;20063;-74
2022/11/17 06:58:52;;;;;;;1999.90;999.90;;;;;;;9.23;100.00;96602.91;5100208;28;20495;-75
2022/11/17 07:01:18;;;;;;;1999.90;999.90;;;;;;;9.20;100.00;96610.91;5099894;28;20040;-75
2022/11/17 07:03:43;;;;;;;1999.90;999.90;;;;;;;9.21;100.00;96610.56;5097350;28;20054;-75
2022/11/17 07:06:10;;;;;;;1999.90;999.90;;;;;;;9.26;100.00;96617.81;5109755;28;20465;-75
2022/11/17 07:08:36;;;;;;;1999.90;999.90;;;;;;;9.28;100.00;96604.66;5113301;28;20388;-75
2022/11/17 07:11:10;;;;;;;1999.90;999.90;;;;;;;9.37;100.00;96592.63;5103074;28;20019;-76
2022/11/17 07:13:36;;;;;;;1999.90;999.90;;;;;;;9.37;100.00;96587.16;5099352;28;20021;-77
2022/11/17 07:16:13;;;;;;;1999.90;999.90;;;;;;;9.34;100.00;96598.72;5092133;28;20024;-79
2022/11/17 07:18:43;;;;;;;1999.90;999.90;;;;;;;9.48;100.00;96593.91;5095049;28;20067;-75
2022/11/17 07:21:12;;;;;;;1999.90;999.90;;;;;;;9.57;100.00;96583.78;5101500;28;20028;-75
2022/11/17 07:23:39;;;;;;;1999.90;999.90;;;;;;;9.54;100.00;96581.72;5090490;28;20039;-74
2022/11/17 07:26:05;;;;;;;1999.90;999.90;;;;;;;9.67;100.00;96588.13;5072746;28;20024;-75
2022/11/17 07:28:32;;;;;;;1999.90;999.90;;;;;;;9.64;100.00;96592.31;5090995;28;20173;-75
2022/11/17 07:31:01;;;;;;;1999.90;999.90;;;;;;;9.69;100.00;96594.84;5090963;28;20525;-76
2022/11/17 07:33:27;;;;;;;1999.90;999.90;;;;;;;9.62;100.00;96600.00;5090875;28;20067;-75
2022/11/17 07:35:52;;;;;;;1999.90;999.90;;;;;;;9.40;100.00;96581.06;5091220;28;20055;-75
2022/11/17 07:38:17;;;;;;;1999.90;999.90;;;;;;;9.33;100.00;96583.50;5091272;28;20035;-75
2022/11/17 07:40:43;;;;;;;1999.90;999.90;;;;;;;9.35;100.00;96577.69;5091382;28;20024;-75
2022/11/17 07:43:08;;;;;;;1999.90;999.90;;;;;;;9.52;100.00;96573.03;5091399;28;20486;-75
2022/11/17 07:45:34;;;;;;;1999.90;999.90;;;;;;;9.56;100.00;96565.81;5091212;28;20089;-77
2022/11/17 07:48:01;;;;;;;1999.90;999.90;;;;;;;9.71;100.00;96569.16;5090562;28;20048;-75
2022/11/17 07:50:27;;;;;;;1999.90;999.90;;;;;;;9.90;100.00;96572.34;5091105;28;20032;-77
2022/11/17 07:52:55;;;;;;;1999.90;999.90;;;;;;;9.82;100.00;96559.50;5091288;28;20046;-77
2022/11/17 07:55:21;;;;;;;1999.90;999.90;;;;;;;9.88;100.00;96560.94;5090994;28;20028;-76
2022/11/17 07:57:53;;;;;;;1999.90;999.90;;;;;;;10.16;100.00;96559.44;5090951;28;20020;-75
2022/11/17 08:00:18;;;;;;;1999.90;999.90;;;;;;;10.12;100.00;96552.97;5091205;28;20024;-75
2022/11/17 08:02:44;;;;;;;1999.90;999.90;;;;;;;10.11;100.00;96552.19;5090992;28;20028;-76
2022/11/17 08:05:09;;;;;;;1999.90;999.90;;;;;;;10.08;100.00;96552.03;5090775;28;20046;-76
2022/11/17 08:07:35;;;;;;;1999.90;999.90;;;;;;;9.89;100.00;96551.63;5090681;28;20058;-74
2022/11/17 08:10:00;;;;;;;1999.90;999.90;;;;;;;10.11;100.00;96551.38;5090728;28;20073;-76
2022/11/17 08:12:25;;;;;;;1999.90;999.90;;;;;;;10.03;100.00;96554.94;5105325;28;20031;-75
2022/11/17 08:14:51;;;;;;;1999.90;999.90;;;;;;;10.03;100.00;96563.13;5110256;28;20032;-76
2022/11/17 08:17:16;;;;;;;1999.90;999.90;;;;;;;10.05;100.00;96552.69;5111224;28;20027;-76
2022/11/17 08:19:42;;;;;;;1999.90;999.90;;;;;;;9.94;100.00;96552.25;5111894;28;20035;-76
2022/11/17 08:22:07;;;;;;;1999.90;999.90;;;;;;;10.12;100.00;96547.50;5112722;28;20035;-79
2022/11/17 08:24:33;;;;;;;1999.90;999.90;;;;;;;10.26;100.00;96553.63;5112302;28;20103;-76
2022/11/17 08:26:58;;;;;;;1999.90;999.90;;;;;;;10.31;100.00;96550.69;5110607;28;20051;-76
2022/11/17 08:29:23;;;;;;;1999.90;999.90;;;;;;;10.43;100.00;96541.81;5111061;28;20031;-75
2022/11/17 08:31:49;;;;;;;1999.90;999.90;;;;;;;10.49;100.00;96546.75;5111172;28;20031;-77
2022/11/17 08:34:14;;;;;;;1999.90;999.90;;;;;;;10.45;100.00;96556.75;5111199;28;20024;-75
2022/11/17 08:36:40;;;;;;;1999.90;999.90;;;;;;;10.36;100.00;96556.00;5110770;28;20035;-76
2022/11/17 08:39:05;;;;;;;1999.90;999.90;;;;;;;10.40;100.00;96556.91;5109973;28;20035;-75
2022/11/17 08:41:31;;;;;;;1999.90;999.90;;;;;;;10.35;100.00;96556.31;5109959;28;20350;-74
2022/11/17 08:43:56;;;;;;;1999.90;999.90;;;;;;;10.52;100.00;96548.84;5110828;28;20023;-77
2022/11/17 08:46:22;;;;;;;1999.90;999.90;;;;;;;10.62;100.00;96548.44;5110673;28;20042;-75
2022/11/17 08:48:47;;;;;;;1999.90;999.90;;;;;;;10.67;100.00;96547.47;5110064;28;20144;-75
2022/11/17 08:51:13;;;;;;;1999.90;999.90;;;;;;;10.64;100.00;96548.13;5110499;28;20053;-74
2022/11/17 08:53:39;;;;;;;1999.90;999.90;;;;;;;10.80;100.00;96548.34;5110701;28;20020;-76
2022/11/17 08:56:10;;;;;;;1999.90;999.90;;;;;;;10.82;100.00;96548.81;5110343;28;20085;-74
2022/11/17 08:58:43;;;;;;;1999.90;999.90;;;;;;;10.61;100.00;96554.25;5110772;28;20106;-77
2022/11/17 09:01:14;;;;;;;1999.90;999.90;;;;;;;10.50;100.00;96548.34;5110465;28;20419;-76
2022/11/17 09:03:41;;;;;;;1999.90;999.90;;;;;;;10.71;100.00;96546.47;5110700;28;20126;-75
2022/11/17 09:06:07;;;;;;;1999.90;999.90;;;;;;;10.57;100.00;96554.13;5110850;28;20076;-75
2022/11/17 09:08:32;;;;;;;1999.90;999.90;;;;;;;10.57;100.00;96558.78;5110830;28;20043;-76
2022/11/17 09:10:58;;;;;;;1999.90;999.90;;;;;;;10.59;100.00;96556.50;5111268;28;20063;-80
2022/11/17 09:13:23;;;;;;;1999.90;999.90;;;;;;;10.59;100.00;96554.56;5100649;28;20111;-80
2022/11/17 09:15:49;;;;;;;1999.90;999.90;;;;;;;10.59;100.00;96557.31;5120620;28;20024;-76
2022/11/17 09:18:14;;;;;;;1999.90;999.90;;;;;;;10.64;100.00;96565.34;5112056;28;20028;-74
2022/11/17 09:20:39;;;;;;;1999.90;999.90;;;;;;;10.68;100.00;96554.53;5110748;28;20429;-75
2022/11/17 09:23:05;;;;;;;1999.90;999.90;;;;;;;10.75;100.00;96558.34;5110551;28;20548;-76
2022/11/17 09:25:30;;;;;;;1999.90;999.90;;;;;;;10.73;100.00;96557.88;5111840;28;20579;-76
2022/11/17 09:27:56;;;;;;;1999.90;999.90;;;;;;;10.77;100.00;96551.75;5115023;28;20586;-76
2022/11/17 09:30:22;;;;;;;1999.90;999.90;;;;;;;10.73;100.00;96555.16;5115152;28;20073;-76
2022/11/17 09:32:50;;;;;;;1999.90;999.90;;;;;;;10.73;100.00;96568.81;5115399;28;20384;-77
2022/11/17 09:35:17;;;;;;;1999.90;999.90;;;;;;;10.67;100.00;96567.41;5114916;28;20483;-76
2022/11/17 09:37:43;;;;;;;1999.90;999.90;;;;;;;10.56;100.00;96568.91;5114692;28;20035;-76
2022/11/17 09:40:16;;;;;;;1999.90;999.90;;;;;;;10.55;100.00;96567.31;5114009;28;20020;-75
2022/11/17 09:42:42;;;;;;;1999.90;999.90;;;;;;;10.52;100.00;96578.09;5114186;28;20035;-75
2022/11/17 09:45:17;;;;;;;1999.90;999.90;;;;;;;10.50;100.00;96580.34;5114180;28;20031;-75
2022/11/17 09:47:50;;;;;;;1999.90;999.90;;;;;;;10.40;100.00;96583.47;5114251;28;20035;-75
2022/11/17 09:50:22;;;;;;;1999.90;999.90;;;;;;;10.42;100.00;96584.75;5114087;28;20027;-75
2022/11/17 09:52:57;;;;;;;1999.90;999.90;;;;;;;10.35;100.00;96570.78;5114290;28;20422;-75
2022/11/17 09:55:29;;;;;;;1999.90;999.90;;;;;;;10.46;100.00;96566.53;5113937;28;20035;-76
2022/11/17 09:58:00;;;;;;;1999.90;999.90;;;;;;;10.39;100.00;96566.25;5113959;28;20480;-75
2022/11/17 10:00:25;;;;;;;1999.90;999.90;;;;;;;10.38;100.00;96572.03;5114173;28;20114;-77
2022/11/17 10:02:52;;;;;;;1999.90;999.90;;;;;;;10.54;100.00;96571.16;5113934;28;20563;-76
2022/11/17 10:05:28;;;;;;;1999.90;999.90;;;;;;;10.45;100.00;96558.69;5113910;28;20024;-79
2022/11/17 10:07:58;;;;;;;1999.90;999.90;;;;;;;10.73;100.00;96563.34;5114186;28;20042;-76
2022/11/17 10:10:36;;;;;;;1999.90;999.90;;;;;;;11.07;100.00;96567.00;5113730;28;20039;-77
2022/11/17 10:13:05;;;;;;;1999.90;999.90;;;;;;;11.19;100.00;96564.34;5095256;28;20042;-75
2022/11/17 10:15:45;;;;;;;1999.90;999.90;;;;;;;11.07;100.00;96556.06;5113517;28;20072;-76
2022/11/17 10:18:13;;;;;;;1999.90;999.90;;;;;;;11.09;100.00;96554.56;5113571;28;20491;-75
2022/11/17 10:20:42;;;;;;;1999.90;999.90;;;;;;;11.16;100.00;96540.38;5113733;28;20058;-78
2022/11/17 10:23:17;;;;;;;1999.90;999.90;;;;;;;11.19;100.00;96545.16;5113625;28;20396;-76
2022/11/17 10:25:57;;;;;;;1999.90;999.90;;;;;;;11.20;100.00;96541.31;5113406;28;20032;-77
2022/11/17 10:28:31;;;;;;;1999.90;999.90;;;;;;;11.22;100.00;96541.78;5113487;28;20048;-75
2022/11/17 10:30:59;;;;;;;1999.90;999.90;;;;;;;11.26;100.00;96535.31;5113302;28;20035;-76
2022/11/17 10:33:33;;;;;;;1999.90;999.90;;;;;;;11.20;100.00;96539.38;5113261;28;20035;-77
2022/11/17 10:35:59;;;;;;;1999.90;999.90;;;;;;;11.09;100.00;96549.09;5113017;28;20034;-76
2022/11/17 10:38:27;;;;;;;1999.90;999.90;;;;;;;11.06;100.00;96544.31;5112768;28;20032;-76
2022/11/17 10:40:57;;;;;;;1999.90;999.90;;;;;;;11.11;100.00;96532.38;5113156;28;20426;-76
2022/11/17 10:43:35;;;;;;;1999.90;999.90;;;;;;;11.05;100.00;96526.31;5113137;28;20059;-79
2022/11/17 10:46:12;;;;;;;1999.90;999.90;;;;;;;11.11;100.00;96526.91;5112955;28;20030;-77
2022/11/17 10:48:39;;;;;;;1999.90;999.90;;;;;;;11.18;100.00;96529.91;5112793;28;20028;-76
2022/11/17 10:51:19;;;;;;;1999.90;999.90;;;;;;;11.10;100.00;96526.09;5112900;28;20031;-78
2022/11/17 10:54:05;;;;;;;1999.90;999.90;;;;;;;11.06;100.00;96522.41;5112992;28;20110;-76
2022/11/17 10:56:37;;;;;;;1999.90;999.90;;;;;;;11.04;100.00;96518.41;5112840;28;20024;-79
2022/11/17 10:59:13;;;;;;;1999.90;999.90;;;;;;;10.93;100.00;96528.16;5112972;28;20036;-78
2022/11/17 11:01:42;;;;;;;1999.90;999.90;;;;;;;10.89;100.00;96524.47;5112924;28;20027;-77
2022/11/17 11:04:40;;;;;;;1999.90;999.90;;;;;;;10.85;100.00;96526.28;5112754;28;20491;-76
2022/11/17 11:07:20;;;;;;;1999.90;999.90;;;;;;;10.75;100.00;96525.53;5112452;28;20527;-80
2022/11/17 11:09:56;;;;;;;1999.90;999.90;;;;;;;10.77;100.00;96520.53;5113031;28;20024;-78
2022/11/17 11:12:34;;;;;;;1999.90;999.90;;;;;;;10.80;100.00;96523.75;5112661;28;20020;-78
2022/11/17 11:15:02;;;;;;;1999.90;999.90;;;;;;;10.91;100.00;96519.47;5112895;28;20031;-77
2022/11/17 11:17:28;;;;;;;1999.90;999.90;;;;;;;11.10;100.00;96517.88;5112973;28;20035;-78
2022/11/17 11:19:54;;;;;;;1999.90;999.90;;;;;;;11.31;100.00;96522.56;5115865;28;20488;-80
2022/11/17 11:22:50;;;;;;;1999.90;999.90;;;;;;;11.35;100.00;96518.81;5122577;28;20040;-76
2022/11/17 11:25:32;;;;;;;1999.90;999.90;;;;;;;11.43;100.00;96522.63;5113191;28;20114;-78
2022/11/17 11:28:14;;;;;;;1999.90;999.90;;;;;;;11.41;100.00;96511.19;5112798;28;20507;-77
2022/11/17 11:31:14;;;;;;;1999.90;999.90;;;;;;;11.39;100.00;96514.25;5112407;28;20059;-76